sensor_id;sensor_type;location;lat;lon;timestamp;P1;durP1;ratioP1;P2;durP2;ratioP2
13461;SDS011;6803;45.264;5.468;2022-09-24T00:00:45;5.37;;;3.40;;
13461;SDS011;6803;45.264;5.468;2022-09-24T00:03:18;6.73;;;3.83;;
13461;SDS011;6803;45.264;5.468;2022-09-24T00:05:49;4.00;;;3.53;;
13461;SDS011;6803;45.264;5.468;2022-09-24T00:08:28;3.90;;;3.27;;
13461;SDS011;6803;45.264;5.468;2022-09-24T00:11:00;6.43;;;3.90;;
13461;SDS011;6803;45.264;5.468;2022-09-24T00:13:33;3.60;;;3.13;;
13461;SDS011;6803;45.264;5.468;2022-09-24T00:16:05;7.00;;;4.00;;
13461;SDS011;6803;45.264;5.468;2022-09-24T00:18:38;6.07;;;3.73;;
13461;SDS011;6803;45.264;5.468;2022-09-24T00:21:13;4.50;;;3.90;;
13461;SDS011;6803;45.264;5.468;2022-09-24T00:23:48;8.57;;;3.80;;
13461;SDS011;6803;45.264;5.468;2022-09-24T00:26:21;5.73;;;4.00;;
13461;SDS011;6803;45.264;5.468;2022-09-24T00:29:10;4.70;;;3.90;;
13461;SDS011;6803;45.264;5.468;2022-09-24T00:31:43;5.07;;;3.50;;
13461;SDS011;6803;45.264;5.468;2022-09-24T00:34:14;6.63;;;3.90;;
13461;SDS011;6803;45.264;5.468;2022-09-24T00:36:45;8.10;;;3.77;;
13461;SDS011;6803;45.264;5.468;2022-09-24T00:39:16;5.03;;;3.60;;
13461;SDS011;6803;45.264;5.468;2022-09-24T00:41:46;3.70;;;3.40;;
13461;SDS011;6803;45.264;5.468;2022-09-24T00:47:27;10.37;;;3.20;;
13461;SDS011;6803;45.264;5.468;2022-09-24T00:50:09;3.83;;;3.43;;
13461;SDS011;6803;45.264;5.468;2022-09-24T00:52:47;4.40;;;3.60;;
13461;SDS011;6803;45.264;5.468;2022-09-24T00:55:20;4.67;;;3.13;;
13461;SDS011;6803;45.264;5.468;2022-09-24T00:57:53;4.00;;;3.70;;
13461;SDS011;6803;45.264;5.468;2022-09-24T01:00:25;4.37;;;3.97;;
13461;SDS011;6803;45.264;5.468;2022-09-24T01:02:58;8.40;;;3.80;;
13461;SDS011;6803;45.264;5.468;2022-09-24T01:05:38;4.37;;;3.97;;
13461;SDS011;6803;45.264;5.468;2022-09-24T01:08:10;4.60;;;3.50;;
13461;SDS011;6803;45.264;5.468;2022-09-24T01:13:38;5.40;;;3.67;;
13461;SDS011;6803;45.264;5.468;2022-09-24T01:16:18;4.23;;;3.80;;
13461;SDS011;6803;45.264;5.468;2022-09-24T01:18:57;4.10;;;3.70;;
13461;SDS011;6803;45.264;5.468;2022-09-24T01:21:32;6.10;;;3.57;;
13461;SDS011;6803;45.264;5.468;2022-09-24T01:24:18;5.33;;;4.03;;
13461;SDS011;6803;45.264;5.468;2022-09-24T01:27:00;3.67;;;3.37;;
13461;SDS011;6803;45.264;5.468;2022-09-24T01:29:36;6.27;;;3.70;;
13461;SDS011;6803;45.264;5.468;2022-09-24T01:32:14;6.13;;;3.60;;
13461;SDS011;6803;45.264;5.468;2022-09-24T01:34:48;4.30;;;3.43;;
13461;SDS011;6803;45.264;5.468;2022-09-24T01:37:21;7.33;;;4.07;;
13461;SDS011;6803;45.264;5.468;2022-09-24T01:39:54;7.37;;;4.20;;
13461;SDS011;6803;45.264;5.468;2022-09-24T01:42:26;4.63;;;4.13;;
13461;SDS011;6803;45.264;5.468;2022-09-24T01:44:59;8.17;;;4.63;;
13461;SDS011;6803;45.264;5.468;2022-09-24T01:47:32;6.37;;;4.27;;
13461;SDS011;6803;45.264;5.468;2022-09-24T01:50:08;5.57;;;4.67;;
13461;SDS011;6803;45.264;5.468;2022-09-24T01:52:41;4.63;;;4.10;;
13461;SDS011;6803;45.264;5.468;2022-09-24T01:55:15;5.93;;;4.30;;
13461;SDS011;6803;45.264;5.468;2022-09-24T01:57:49;5.17;;;4.73;;
13461;SDS011;6803;45.264;5.468;2022-09-24T02:00:22;7.77;;;4.50;;
13461;SDS011;6803;45.264;5.468;2022-09-24T02:02:55;6.80;;;4.63;;
13461;SDS011;6803;45.264;5.468;2022-09-24T02:05:29;6.43;;;4.63;;
13461;SDS011;6803;45.264;5.468;2022-09-24T02:08:03;6.27;;;5.57;;
13461;SDS011;6803;45.264;5.468;2022-09-24T02:10:38;9.73;;;5.23;;
13461;SDS011;6803;45.264;5.468;2022-09-24T02:13:12;5.93;;;4.77;;
13461;SDS011;6803;45.264;5.468;2022-09-24T02:15:45;6.77;;;5.07;;
13461;SDS011;6803;45.264;5.468;2022-09-24T02:18:20;7.43;;;5.17;;
13461;SDS011;6803;45.264;5.468;2022-09-24T02:20:53;7.43;;;5.37;;
13461;SDS011;6803;45.264;5.468;2022-09-24T02:23:25;6.20;;;5.17;;
13461;SDS011;6803;45.264;5.468;2022-09-24T02:25:59;6.90;;;5.93;;
13461;SDS011;6803;45.264;5.468;2022-09-24T02:28:29;6.17;;;5.13;;
13461;SDS011;6803;45.264;5.468;2022-09-24T02:31:02;6.70;;;5.73;;
13461;SDS011;6803;45.264;5.468;2022-09-24T02:33:35;7.23;;;6.10;;
13461;SDS011;6803;45.264;5.468;2022-09-24T02:36:27;6.73;;;5.63;;
13461;SDS011;6803;45.264;5.468;2022-09-24T02:38:58;6.17;;;5.37;;
13461;SDS011;6803;45.264;5.468;2022-09-24T02:41:30;8.50;;;5.37;;
13461;SDS011;6803;45.264;5.468;2022-09-24T02:44:01;7.23;;;6.30;;
13461;SDS011;6803;45.264;5.468;2022-09-24T02:46:32;7.53;;;6.60;;
13461;SDS011;6803;45.264;5.468;2022-09-24T02:49:03;8.77;;;7.10;;
13461;SDS011;6803;45.264;5.468;2022-09-24T02:51:33;13.40;;;7.37;;
13461;SDS011;6803;45.264;5.468;2022-09-24T02:54:04;9.90;;;6.83;;
13461;SDS011;6803;45.264;5.468;2022-09-24T02:56:36;9.33;;;7.30;;
13461;SDS011;6803;45.264;5.468;2022-09-24T02:59:08;9.00;;;7.10;;
13461;SDS011;6803;45.264;5.468;2022-09-24T03:01:38;7.77;;;7.07;;
13461;SDS011;6803;45.264;5.468;2022-09-24T03:04:10;8.37;;;7.60;;
13461;SDS011;6803;45.264;5.468;2022-09-24T03:06:41;8.03;;;7.30;;
13461;SDS011;6803;45.264;5.468;2022-09-24T03:09:12;8.20;;;7.40;;
13461;SDS011;6803;45.264;5.468;2022-09-24T03:11:43;7.67;;;6.97;;
13461;SDS011;6803;45.264;5.468;2022-09-24T03:14:14;7.40;;;6.60;;
13461;SDS011;6803;45.264;5.468;2022-09-24T03:16:44;7.77;;;6.97;;
13461;SDS011;6803;45.264;5.468;2022-09-24T03:19:15;8.17;;;6.70;;
13461;SDS011;6803;45.264;5.468;2022-09-24T03:21:45;8.93;;;6.73;;
13461;SDS011;6803;45.264;5.468;2022-09-24T03:24:16;7.57;;;6.87;;
13461;SDS011;6803;45.264;5.468;2022-09-24T03:26:46;7.90;;;7.20;;
13461;SDS011;6803;45.264;5.468;2022-09-24T03:29:17;8.67;;;7.47;;
13461;SDS011;6803;45.264;5.468;2022-09-24T03:31:50;9.43;;;7.93;;
13461;SDS011;6803;45.264;5.468;2022-09-24T03:34:20;7.97;;;7.17;;
13461;SDS011;6803;45.264;5.468;2022-09-24T03:36:51;9.57;;;7.93;;
13461;SDS011;6803;45.264;5.468;2022-09-24T03:39:22;8.40;;;6.73;;
13461;SDS011;6803;45.264;5.468;2022-09-24T03:41:52;8.70;;;7.00;;
13461;SDS011;6803;45.264;5.468;2022-09-24T03:44:23;9.43;;;7.00;;
13461;SDS011;6803;45.264;5.468;2022-09-24T03:46:53;7.87;;;7.00;;
13461;SDS011;6803;45.264;5.468;2022-09-24T03:49:24;7.80;;;6.60;;
13461;SDS011;6803;45.264;5.468;2022-09-24T03:51:55;6.83;;;6.03;;
13461;SDS011;6803;45.264;5.468;2022-09-24T03:54:25;7.13;;;6.40;;
13461;SDS011;6803;45.264;5.468;2022-09-24T03:56:56;7.40;;;6.70;;
13461;SDS011;6803;45.264;5.468;2022-09-24T03:59:26;9.43;;;6.67;;
13461;SDS011;6803;45.264;5.468;2022-09-24T04:01:57;7.90;;;6.60;;
13461;SDS011;6803;45.264;5.468;2022-09-24T04:04:28;8.03;;;7.23;;
13461;SDS011;6803;45.264;5.468;2022-09-24T04:06:58;7.43;;;6.73;;
13461;SDS011;6803;45.264;5.468;2022-09-24T04:09:29;13.13;;;8.30;;
13461;SDS011;6803;45.264;5.468;2022-09-24T04:12:00;8.57;;;7.77;;
13461;SDS011;6803;45.264;5.468;2022-09-24T04:14:33;8.87;;;7.97;;
13461;SDS011;6803;45.264;5.468;2022-09-24T04:17:04;7.60;;;7.00;;
13461;SDS011;6803;45.264;5.468;2022-09-24T04:19:34;7.57;;;6.90;;
13461;SDS011;6803;45.264;5.468;2022-09-24T04:22:06;8.50;;;7.30;;
13461;SDS011;6803;45.264;5.468;2022-09-24T04:24:37;7.90;;;7.20;;
13461;SDS011;6803;45.264;5.468;2022-09-24T04:27:08;9.93;;;7.23;;
13461;SDS011;6803;45.264;5.468;2022-09-24T04:29:38;11.83;;;8.37;;
13461;SDS011;6803;45.264;5.468;2022-09-24T04:32:09;15.10;;;7.83;;
13461;SDS011;6803;45.264;5.468;2022-09-24T04:34:39;43.43;;;8.43;;
13461;SDS011;6803;45.264;5.468;2022-09-24T04:37:10;10.93;;;7.43;;
13461;SDS011;6803;45.264;5.468;2022-09-24T04:39:41;10.23;;;7.67;;
13461;SDS011;6803;45.264;5.468;2022-09-24T04:42:15;8.17;;;7.20;;
13461;SDS011;6803;45.264;5.468;2022-09-24T04:44:46;21.73;;;8.20;;
13461;SDS011;6803;45.264;5.468;2022-09-24T04:47:18;26.93;;;8.83;;
13461;SDS011;6803;45.264;5.468;2022-09-24T04:49:51;9.10;;;8.20;;
13461;SDS011;6803;45.264;5.468;2022-09-24T04:52:21;18.23;;;8.97;;
13461;SDS011;6803;45.264;5.468;2022-09-24T04:54:53;11.93;;;10.63;;
13461;SDS011;6803;45.264;5.468;2022-09-24T04:57:24;99.03;;;13.20;;
13461;SDS011;6803;45.264;5.468;2022-09-24T04:59:58;356.07;;;28.50;;
13461;SDS011;6803;45.264;5.468;2022-09-24T05:02:28;78.93;;;12.60;;
13461;SDS011;6803;45.264;5.468;2022-09-24T05:05:00;143.33;;;17.70;;
13461;SDS011;6803;45.264;5.468;2022-09-24T05:07:30;74.50;;;13.77;;
13461;SDS011;6803;45.264;5.468;2022-09-24T05:10:01;33.23;;;11.60;;
13461;SDS011;6803;45.264;5.468;2022-09-24T05:12:33;116.10;;;17.97;;
13461;SDS011;6803;45.264;5.468;2022-09-24T05:15:05;16.77;;;11.27;;
13461;SDS011;6803;45.264;5.468;2022-09-24T05:17:37;11.77;;;10.67;;
13461;SDS011;6803;45.264;5.468;2022-09-24T05:20:08;11.37;;;10.00;;
13461;SDS011;6803;45.264;5.468;2022-09-24T05:22:42;11.57;;;9.57;;
13461;SDS011;6803;45.264;5.468;2022-09-24T05:25:14;10.70;;;9.73;;
13461;SDS011;6803;45.264;5.468;2022-09-24T05:27:46;10.10;;;9.10;;
13461;SDS011;6803;45.264;5.468;2022-09-24T05:30:20;12.00;;;10.73;;
13461;SDS011;6803;45.264;5.468;2022-09-24T05:32:51;9.17;;;8.23;;
13461;SDS011;6803;45.264;5.468;2022-09-24T05:35:22;10.07;;;9.07;;
13461;SDS011;6803;45.264;5.468;2022-09-24T05:37:53;10.80;;;9.70;;
13461;SDS011;6803;45.264;5.468;2022-09-24T05:40:23;10.17;;;9.10;;
13461;SDS011;6803;45.264;5.468;2022-09-24T05:43:12;11.20;;;9.57;;
13461;SDS011;6803;45.264;5.468;2022-09-24T05:45:44;14.27;;;9.20;;
13461;SDS011;6803;45.264;5.468;2022-09-24T05:48:15;12.60;;;9.60;;
13461;SDS011;6803;45.264;5.468;2022-09-24T05:50:46;12.43;;;9.40;;
13461;SDS011;6803;45.264;5.468;2022-09-24T05:53:18;10.27;;;9.13;;
13461;SDS011;6803;45.264;5.468;2022-09-24T05:55:50;11.97;;;9.97;;
13461;SDS011;6803;45.264;5.468;2022-09-24T05:58:20;11.10;;;10.00;;
13461;SDS011;6803;45.264;5.468;2022-09-24T06:00:51;10.43;;;9.37;;
13461;SDS011;6803;45.264;5.468;2022-09-24T06:03:22;10.90;;;9.67;;
13461;SDS011;6803;45.264;5.468;2022-09-24T06:05:52;10.43;;;9.00;;
13461;SDS011;6803;45.264;5.468;2022-09-24T06:08:25;10.60;;;9.50;;
13461;SDS011;6803;45.264;5.468;2022-09-24T06:10:58;10.63;;;9.60;;
13461;SDS011;6803;45.264;5.468;2022-09-24T06:13:29;10.30;;;9.23;;
13461;SDS011;6803;45.264;5.468;2022-09-24T06:16:02;11.10;;;9.90;;
13461;SDS011;6803;45.264;5.468;2022-09-24T06:18:36;10.50;;;9.40;;
13461;SDS011;6803;45.264;5.468;2022-09-24T06:21:09;9.97;;;8.97;;
13461;SDS011;6803;45.264;5.468;2022-09-24T06:23:41;11.00;;;9.80;;
13461;SDS011;6803;45.264;5.468;2022-09-24T06:26:12;11.17;;;9.90;;
13461;SDS011;6803;45.264;5.468;2022-09-24T06:28:43;10.37;;;9.37;;
13461;SDS011;6803;45.264;5.468;2022-09-24T06:31:14;11.27;;;10.03;;
13461;SDS011;6803;45.264;5.468;2022-09-24T06:33:45;9.90;;;8.90;;
13461;SDS011;6803;45.264;5.468;2022-09-24T06:36:15;9.80;;;8.70;;
13461;SDS011;6803;45.264;5.468;2022-09-24T06:38:49;10.03;;;9.10;;
13461;SDS011;6803;45.264;5.468;2022-09-24T06:41:20;12.50;;;9.43;;
13461;SDS011;6803;45.264;5.468;2022-09-24T06:43:53;10.13;;;9.00;;
13461;SDS011;6803;45.264;5.468;2022-09-24T06:46:23;9.83;;;8.83;;
13461;SDS011;6803;45.264;5.468;2022-09-24T06:48:54;10.30;;;8.50;;
13461;SDS011;6803;45.264;5.468;2022-09-24T06:51:25;8.80;;;7.90;;
13461;SDS011;6803;45.264;5.468;2022-09-24T06:53:56;8.90;;;8.10;;
13461;SDS011;6803;45.264;5.468;2022-09-24T06:56:27;9.13;;;8.17;;
13461;SDS011;6803;45.264;5.468;2022-09-24T06:58:58;9.03;;;8.17;;
13461;SDS011;6803;45.264;5.468;2022-09-24T07:01:29;9.00;;;8.10;;
13461;SDS011;6803;45.264;5.468;2022-09-24T07:04:00;8.73;;;7.83;;
13461;SDS011;6803;45.264;5.468;2022-09-24T07:06:33;8.90;;;8.00;;
13461;SDS011;6803;45.264;5.468;2022-09-24T07:09:23;8.63;;;7.73;;
13461;SDS011;6803;45.264;5.468;2022-09-24T07:11:53;7.63;;;7.03;;
13461;SDS011;6803;45.264;5.468;2022-09-24T07:14:27;7.90;;;7.10;;
13461;SDS011;6803;45.264;5.468;2022-09-24T07:16:58;8.67;;;7.77;;
13461;SDS011;6803;45.264;5.468;2022-09-24T07:19:28;13.60;;;8.13;;
13461;SDS011;6803;45.264;5.468;2022-09-24T07:21:59;8.27;;;7.47;;
13461;SDS011;6803;45.264;5.468;2022-09-24T07:24:30;8.27;;;7.47;;
13461;SDS011;6803;45.264;5.468;2022-09-24T07:27:03;8.00;;;7.20;;
13461;SDS011;6803;45.264;5.468;2022-09-24T07:29:34;8.67;;;6.80;;
13461;SDS011;6803;45.264;5.468;2022-09-24T07:32:05;8.13;;;7.33;;
13461;SDS011;6803;45.264;5.468;2022-09-24T07:34:36;6.97;;;6.27;;
13461;SDS011;6803;45.264;5.468;2022-09-24T07:37:08;7.17;;;6.47;;
13461;SDS011;6803;45.264;5.468;2022-09-24T07:39:39;7.83;;;7.10;;
13461;SDS011;6803;45.264;5.468;2022-09-24T07:42:10;9.27;;;6.50;;
13461;SDS011;6803;45.264;5.468;2022-09-24T07:44:40;6.73;;;6.13;;
13461;SDS011;6803;45.264;5.468;2022-09-24T07:47:11;10.57;;;6.50;;
13461;SDS011;6803;45.264;5.468;2022-09-24T07:49:43;6.53;;;5.93;;
13461;SDS011;6803;45.264;5.468;2022-09-24T07:52:13;5.80;;;5.30;;
13461;SDS011;6803;45.264;5.468;2022-09-24T07:54:44;6.17;;;5.43;;
13461;SDS011;6803;45.264;5.468;2022-09-24T07:57:16;4.37;;;3.80;;
13461;SDS011;6803;45.264;5.468;2022-09-24T07:59:46;4.43;;;4.00;;
13461;SDS011;6803;45.264;5.468;2022-09-24T08:02:18;4.90;;;4.10;;
13461;SDS011;6803;45.264;5.468;2022-09-24T08:04:49;4.03;;;3.73;;
13461;SDS011;6803;45.264;5.468;2022-09-24T08:07:19;5.03;;;4.53;;
13461;SDS011;6803;45.264;5.468;2022-09-24T08:09:50;5.33;;;4.83;;
13461;SDS011;6803;45.264;5.468;2022-09-24T08:12:23;6.87;;;6.17;;
13461;SDS011;6803;45.264;5.468;2022-09-24T08:14:54;8.00;;;7.20;;
13461;SDS011;6803;45.264;5.468;2022-09-24T08:17:25;11.50;;;8.47;;
13461;SDS011;6803;45.264;5.468;2022-09-24T08:19:55;12.30;;;10.17;;
13461;SDS011;6803;45.264;5.468;2022-09-24T08:22:26;11.40;;;8.30;;
13461;SDS011;6803;45.264;5.468;2022-09-24T08:24:58;10.03;;;8.07;;
13461;SDS011;6803;45.264;5.468;2022-09-24T08:27:30;13.90;;;8.37;;
13461;SDS011;6803;45.264;5.468;2022-09-24T08:30:02;14.17;;;8.93;;
13461;SDS011;6803;45.264;5.468;2022-09-24T08:32:34;9.37;;;7.73;;
13461;SDS011;6803;45.264;5.468;2022-09-24T08:35:06;8.27;;;6.50;;
13461;SDS011;6803;45.264;5.468;2022-09-24T08:37:37;6.80;;;5.63;;
13461;SDS011;6803;45.264;5.468;2022-09-24T08:40:09;6.57;;;5.97;;
13461;SDS011;6803;45.264;5.468;2022-09-24T08:42:45;6.00;;;5.50;;
13461;SDS011;6803;45.264;5.468;2022-09-24T08:45:17;6.93;;;5.67;;
13461;SDS011;6803;45.264;5.468;2022-09-24T08:48:18;13.03;;;6.67;;
13461;SDS011;6803;45.264;5.468;2022-09-24T08:50:53;15.67;;;5.87;;
13461;SDS011;6803;45.264;5.468;2022-09-24T08:53:28;7.63;;;5.80;;
13461;SDS011;6803;45.264;5.468;2022-09-24T08:56:02;8.17;;;5.23;;
13461;SDS011;6803;45.264;5.468;2022-09-24T08:58:35;17.97;;;5.20;;
13461;SDS011;6803;45.264;5.468;2022-09-24T09:01:15;11.47;;;5.10;;
13461;SDS011;6803;45.264;5.468;2022-09-24T09:03:51;7.73;;;4.87;;
13461;SDS011;6803;45.264;5.468;2022-09-24T09:06:29;6.50;;;4.40;;
13461;SDS011;6803;45.264;5.468;2022-09-24T09:09:23;5.50;;;5.00;;
13461;SDS011;6803;45.264;5.468;2022-09-24T09:11:57;5.90;;;4.90;;
13461;SDS011;6803;45.264;5.468;2022-09-24T09:14:33;5.83;;;4.70;;
13461;SDS011;6803;45.264;5.468;2022-09-24T09:17:22;6.80;;;5.10;;
13461;SDS011;6803;45.264;5.468;2022-09-24T09:19:51;7.47;;;4.60;;
13461;SDS011;6803;45.264;5.468;2022-09-24T09:22:23;6.33;;;4.30;;
13461;SDS011;6803;45.264;5.468;2022-09-24T09:24:58;4.77;;;4.30;;
13461;SDS011;6803;45.264;5.468;2022-09-24T09:27:32;4.57;;;4.10;;
13461;SDS011;6803;45.264;5.468;2022-09-24T09:30:05;5.13;;;3.60;;
13461;SDS011;6803;45.264;5.468;2022-09-24T09:32:46;4.63;;;3.60;;
13461;SDS011;6803;45.264;5.468;2022-09-24T09:35:27;3.83;;;3.50;;
13461;SDS011;6803;45.264;5.468;2022-09-24T09:38:01;3.97;;;3.67;;
13461;SDS011;6803;45.264;5.468;2022-09-24T09:40:34;4.70;;;3.03;;
13461;SDS011;6803;45.264;5.468;2022-09-24T09:43:09;5.20;;;3.17;;
13461;SDS011;6803;45.264;5.468;2022-09-24T09:45:42;7.33;;;3.30;;
13461;SDS011;6803;45.264;5.468;2022-09-24T09:48:16;3.27;;;2.90;;
13461;SDS011;6803;45.264;5.468;2022-09-24T09:50:49;3.63;;;3.07;;
13461;SDS011;6803;45.264;5.468;2022-09-24T09:53:22;7.40;;;3.70;;
13461;SDS011;6803;45.264;5.468;2022-09-24T09:55:55;5.13;;;3.57;;
13461;SDS011;6803;45.264;5.468;2022-09-24T09:58:28;4.17;;;2.90;;
13461;SDS011;6803;45.264;5.468;2022-09-24T10:01:04;3.80;;;3.40;;
13461;SDS011;6803;45.264;5.468;2022-09-24T10:03:45;8.50;;;2.93;;
13461;SDS011;6803;45.264;5.468;2022-09-24T10:06:22;3.50;;;3.20;;
13461;SDS011;6803;45.264;5.468;2022-09-24T10:09:05;4.03;;;2.67;;
13461;SDS011;6803;45.264;5.468;2022-09-24T10:11:35;3.53;;;2.60;;
13461;SDS011;6803;45.264;5.468;2022-09-24T10:14:08;3.13;;;2.77;;
13461;SDS011;6803;45.264;5.468;2022-09-24T10:16:41;5.27;;;2.43;;
13461;SDS011;6803;45.264;5.468;2022-09-24T10:19:18;2.73;;;2.50;;
13461;SDS011;6803;45.264;5.468;2022-09-24T10:21:50;2.77;;;2.23;;
13461;SDS011;6803;45.264;5.468;2022-09-24T10:24:24;2.17;;;1.97;;
13461;SDS011;6803;45.264;5.468;2022-09-24T10:26:56;3.17;;;2.17;;
13461;SDS011;6803;45.264;5.468;2022-09-24T10:29:29;2.77;;;2.30;;
13461;SDS011;6803;45.264;5.468;2022-09-24T10:32:18;2.20;;;2.00;;
13461;SDS011;6803;45.264;5.468;2022-09-24T10:37:50;3.33;;;2.00;;
13461;SDS011;6803;45.264;5.468;2022-09-24T10:40:22;1.70;;;1.60;;
13461;SDS011;6803;45.264;5.468;2022-09-24T10:43:00;1.97;;;1.53;;
13461;SDS011;6803;45.264;5.468;2022-09-24T10:45:45;2.13;;;1.67;;
13461;SDS011;6803;45.264;5.468;2022-09-24T10:48:23;1.70;;;1.57;;
13461;SDS011;6803;45.264;5.468;2022-09-24T10:50:58;3.77;;;1.47;;
13461;SDS011;6803;45.264;5.468;2022-09-24T10:53:39;3.37;;;1.70;;
13461;SDS011;6803;45.264;5.468;2022-09-24T10:56:17;3.10;;;1.53;;
13461;SDS011;6803;45.264;5.468;2022-09-24T10:59:04;1.40;;;1.30;;
13461;SDS011;6803;45.264;5.468;2022-09-24T11:01:46;2.33;;;1.50;;
13461;SDS011;6803;45.264;5.468;2022-09-24T11:04:23;1.57;;;1.40;;
13461;SDS011;6803;45.264;5.468;2022-09-24T11:07:18;4.77;;;1.70;;
13461;SDS011;6803;45.264;5.468;2022-09-24T11:10:02;1.70;;;1.60;;
13461;SDS011;6803;45.264;5.468;2022-09-24T11:12:38;1.50;;;1.40;;
13461;SDS011;6803;45.264;5.468;2022-09-24T11:15:14;1.70;;;1.60;;
13461;SDS011;6803;45.264;5.468;2022-09-24T11:17:55;1.50;;;1.40;;
13461;SDS011;6803;45.264;5.468;2022-09-24T11:20:36;1.87;;;1.60;;
13461;SDS011;6803;45.264;5.468;2022-09-24T11:23:14;2.10;;;1.70;;
13461;SDS011;6803;45.264;5.468;2022-09-24T11:25:54;2.20;;;1.83;;
13461;SDS011;6803;45.264;5.468;2022-09-24T11:28:36;1.70;;;1.60;;
13461;SDS011;6803;45.264;5.468;2022-09-24T11:31:13;2.10;;;1.90;;
13461;SDS011;6803;45.264;5.468;2022-09-24T11:33:59;2.10;;;1.90;;
13461;SDS011;6803;45.264;5.468;2022-09-24T11:36:40;2.53;;;1.80;;
13461;SDS011;6803;45.264;5.468;2022-09-24T11:39:20;2.90;;;1.93;;
13461;SDS011;6803;45.264;5.468;2022-09-24T11:41:57;2.00;;;1.70;;
13461;SDS011;6803;45.264;5.468;2022-09-24T11:44:45;1.77;;;1.63;;
13461;SDS011;6803;45.264;5.468;2022-09-24T11:47:33;2.53;;;1.60;;
13461;SDS011;6803;45.264;5.468;2022-09-24T11:50:13;2.43;;;1.60;;
13461;SDS011;6803;45.264;5.468;2022-09-24T11:52:49;1.90;;;1.47;;
13461;SDS011;6803;45.264;5.468;2022-09-24T11:55:24;3.13;;;1.60;;
13461;SDS011;6803;45.264;5.468;2022-09-24T11:58:02;1.77;;;1.50;;
13461;SDS011;6803;45.264;5.468;2022-09-24T12:00:35;3.43;;;1.30;;
13461;SDS011;6803;45.264;5.468;2022-09-24T12:03:11;2.40;;;1.47;;
13461;SDS011;6803;45.264;5.468;2022-09-24T12:05:47;1.90;;;1.80;;
13461;SDS011;6803;45.264;5.468;2022-09-24T12:08:21;1.70;;;1.60;;
13461;SDS011;6803;45.264;5.468;2022-09-24T12:10:57;2.20;;;1.60;;
13461;SDS011;6803;45.264;5.468;2022-09-24T12:13:31;2.10;;;1.60;;
13461;SDS011;6803;45.264;5.468;2022-09-24T12:16:05;1.60;;;1.50;;
13461;SDS011;6803;45.264;5.468;2022-09-24T12:18:39;2.40;;;1.63;;
13461;SDS011;6803;45.264;5.468;2022-09-24T12:21:14;1.83;;;1.60;;
13461;SDS011;6803;45.264;5.468;2022-09-24T12:23:46;1.40;;;1.30;;
13461;SDS011;6803;45.264;5.468;2022-09-24T12:26:18;1.40;;;1.30;;
13461;SDS011;6803;45.264;5.468;2022-09-24T12:28:53;1.63;;;1.33;;
13461;SDS011;6803;45.264;5.468;2022-09-24T12:31:47;1.00;;;1.00;;
13461;SDS011;6803;45.264;5.468;2022-09-24T12:34:39;1.57;;;1.13;;
13461;SDS011;6803;45.264;5.468;2022-09-24T12:37:13;1.23;;;1.13;;
13461;SDS011;6803;45.264;5.468;2022-09-24T12:39:47;1.50;;;1.17;;
13461;SDS011;6803;45.264;5.468;2022-09-24T12:42:22;1.33;;;1.20;;
13461;SDS011;6803;45.264;5.468;2022-09-24T12:44:58;1.17;;;1.10;;
13461;SDS011;6803;45.264;5.468;2022-09-24T12:47:30;1.40;;;1.30;;
13461;SDS011;6803;45.264;5.468;2022-09-24T12:50:18;1.30;;;1.10;;
13461;SDS011;6803;45.264;5.468;2022-09-24T12:55:27;1.67;;;1.33;;
13461;SDS011;6803;45.264;5.468;2022-09-24T12:58:00;1.77;;;1.47;;
13461;SDS011;6803;45.264;5.468;2022-09-24T13:00:35;1.40;;;1.22;;
13461;SDS011;6803;45.264;5.468;2022-09-24T13:03:29;2.13;;;1.27;;
13461;SDS011;6803;45.264;5.468;2022-09-24T13:06:02;1.37;;;1.27;;
13461;SDS011;6803;45.264;5.468;2022-09-24T13:08:35;2.50;;;1.30;;
13461;SDS011;6803;45.264;5.468;2022-09-24T13:11:23;1.40;;;1.30;;
13461;SDS011;6803;45.264;5.468;2022-09-24T13:14:01;1.45;;;1.35;;
13461;SDS011;6803;45.264;5.468;2022-09-24T13:16:37;1.07;;;1.00;;
13461;SDS011;6803;45.264;5.468;2022-09-24T13:19:20;2.05;;;1.65;;
13461;SDS011;6803;45.264;5.468;2022-09-24T13:21:55;2.42;;;1.32;;
13461;SDS011;6803;45.264;5.468;2022-09-24T13:24:28;1.20;;;1.10;;
13461;SDS011;6803;45.264;5.468;2022-09-24T13:30:05;1.35;;;1.25;;
13461;SDS011;6803;45.264;5.468;2022-09-24T13:32:47;2.08;;;1.25;;
13461;SDS011;6803;45.264;5.468;2022-09-24T13:35:21;1.00;;;1.00;;
13461;SDS011;6803;45.264;5.468;2022-09-24T13:37:56;1.80;;;1.37;;
13461;SDS011;6803;45.264;5.468;2022-09-24T13:40:30;1.22;;;1.10;;
13461;SDS011;6803;45.264;5.468;2022-09-24T13:43:04;1.37;;;1.27;;
13461;SDS011;6803;45.264;5.468;2022-09-24T13:45:38;1.15;;;1.00;;
13461;SDS011;6803;45.264;5.468;2022-09-24T13:48:18;1.77;;;1.15;;
13461;SDS011;6803;45.264;5.468;2022-09-24T13:50:52;0.98;;;0.93;;
13461;SDS011;6803;45.264;5.468;2022-09-24T13:53:24;3.40;;;1.32;;
13461;SDS011;6803;45.264;5.468;2022-09-24T13:55:58;1.17;;;0.90;;
13461;SDS011;6803;45.264;5.468;2022-09-24T13:58:31;1.37;;;1.15;;
13461;SDS011;6803;45.264;5.468;2022-09-24T14:01:09;0.90;;;0.88;;
13461;SDS011;6803;45.264;5.468;2022-09-24T14:03:42;3.58;;;1.12;;
13461;SDS011;6803;45.264;5.468;2022-09-24T14:06:29;1.60;;;1.07;;
13461;SDS011;6803;45.264;5.468;2022-09-24T14:09:00;2.02;;;1.00;;
13461;SDS011;6803;45.264;5.468;2022-09-24T14:11:33;1.75;;;1.00;;
13461;SDS011;6803;45.264;5.468;2022-09-24T14:14:09;2.98;;;1.10;;
13461;SDS011;6803;45.264;5.468;2022-09-24T14:16:43;1.25;;;1.12;;
13461;SDS011;6803;45.264;5.468;2022-09-24T14:19:14;1.40;;;1.23;;
13461;SDS011;6803;45.264;5.468;2022-09-24T14:21:45;1.97;;;1.03;;
13461;SDS011;6803;45.264;5.468;2022-09-24T14:24:19;1.20;;;1.15;;
13461;SDS011;6803;45.264;5.468;2022-09-24T14:26:52;1.13;;;1.03;;
13461;SDS011;6803;45.264;5.468;2022-09-24T14:29:26;1.27;;;1.10;;
13461;SDS011;6803;45.264;5.468;2022-09-24T14:32:00;3.00;;;1.03;;
13461;SDS011;6803;45.264;5.468;2022-09-24T14:34:33;1.00;;;1.00;;
13461;SDS011;6803;45.264;5.468;2022-09-24T14:37:07;2.60;;;1.13;;
13461;SDS011;6803;45.264;5.468;2022-09-24T14:39:56;1.20;;;1.00;;
13461;SDS011;6803;45.264;5.468;2022-09-24T14:42:31;1.67;;;1.33;;
13461;SDS011;6803;45.264;5.468;2022-09-24T14:45:06;1.20;;;1.10;;
13461;SDS011;6803;45.264;5.468;2022-09-24T14:47:38;1.53;;;1.20;;
13461;SDS011;6803;45.264;5.468;2022-09-24T14:53:09;1.43;;;1.30;;
13461;SDS011;6803;45.264;5.468;2022-09-24T14:55:41;1.67;;;0.90;;
13461;SDS011;6803;45.264;5.468;2022-09-24T14:58:31;1.87;;;1.07;;
13461;SDS011;6803;45.264;5.468;2022-09-24T15:01:12;1.63;;;1.13;;
13461;SDS011;6803;45.264;5.468;2022-09-24T15:03:46;8.43;;;1.43;;
13461;SDS011;6803;45.264;5.468;2022-09-24T15:06:18;1.73;;;1.00;;
13461;SDS011;6803;45.264;5.468;2022-09-24T15:08:51;2.30;;;1.33;;
13461;SDS011;6803;45.264;5.468;2022-09-24T15:11:25;1.57;;;1.10;;
13461;SDS011;6803;45.264;5.468;2022-09-24T15:13:59;2.33;;;1.03;;
13461;SDS011;6803;45.264;5.468;2022-09-24T15:16:32;1.33;;;0.97;;
13461;SDS011;6803;45.264;5.468;2022-09-24T15:19:15;4.20;;;1.23;;
13461;SDS011;6803;45.264;5.468;2022-09-24T15:21:47;2.63;;;1.13;;
13461;SDS011;6803;45.264;5.468;2022-09-24T15:24:19;3.13;;;1.00;;
13461;SDS011;6803;45.264;5.468;2022-09-24T15:26:59;2.33;;;1.00;;
13461;SDS011;6803;45.264;5.468;2022-09-24T15:29:31;1.20;;;0.97;;
13461;SDS011;6803;45.264;5.468;2022-09-24T15:32:04;0.70;;;0.70;;
13461;SDS011;6803;45.264;5.468;2022-09-24T15:34:39;1.17;;;1.03;;
13461;SDS011;6803;45.264;5.468;2022-09-24T15:37:10;1.73;;;1.27;;
13461;SDS011;6803;45.264;5.468;2022-09-24T15:39:48;1.30;;;0.80;;
13461;SDS011;6803;45.264;5.468;2022-09-24T15:42:20;1.20;;;1.10;;
13461;SDS011;6803;45.264;5.468;2022-09-24T15:44:53;1.10;;;1.00;;
13461;SDS011;6803;45.264;5.468;2022-09-24T15:47:25;1.27;;;1.10;;
13461;SDS011;6803;45.264;5.468;2022-09-24T15:49:55;1.33;;;1.10;;
13461;SDS011;6803;45.264;5.468;2022-09-24T15:52:26;1.20;;;1.10;;
13461;SDS011;6803;45.264;5.468;2022-09-24T15:55:00;1.00;;;0.93;;
13461;SDS011;6803;45.264;5.468;2022-09-24T15:57:34;1.47;;;1.17;;